sensor_id;sensor_type;location;lat;lon;timestamp;temperature;humidity
21445;DHT22;10883;51.946;20.140;2023-04-03T00:00:16;1.60;99.90
21445;DHT22;10883;51.946;20.140;2023-04-03T00:02:41;1.60;99.90
21445;DHT22;10883;51.946;20.140;2023-04-03T00:05:07;1.60;99.90
21445;DHT22;10883;51.946;20.140;2023-04-03T00:07:33;1.60;99.90
21445;DHT22;10883;51.946;20.140;2023-04-03T00:09:59;1.60;99.90
21445;DHT22;10883;51.946;20.140;2023-04-03T00:12:25;1.60;99.90
21445;DHT22;10883;51.946;20.140;2023-04-03T00:14:51;1.60;99.90
21445;DHT22;10883;51.946;20.140;2023-04-03T00:17:17;1.60;99.90
21445;DHT22;10883;51.946;20.140;2023-04-03T00:19:43;1.60;99.90
21445;DHT22;10883;51.946;20.140;2023-04-03T00:22:08;1.60;99.90
21445;DHT22;10883;51.946;20.140;2023-04-03T00:24:34;1.60;99.90
21445;DHT22;10883;51.946;20.140;2023-04-03T00:27:00;1.60;99.90
21445;DHT22;10883;51.946;20.140;2023-04-03T00:29:26;1.50;99.90
21445;DHT22;10883;51.946;20.140;2023-04-03T00:31:52;1.50;99.90
21445;DHT22;10883;51.946;20.140;2023-04-03T00:34:18;1.40;99.90
21445;DHT22;10883;51.946;20.140;2023-04-03T00:36:44;1.40;99.90
21445;DHT22;10883;51.946;20.140;2023-04-03T00:39:10;1.40;99.90
21445;DHT22;10883;51.946;20.140;2023-04-03T00:41:36;1.30;99.90
21445;DHT22;10883;51.946;20.140;2023-04-03T00:46:59;1.30;99.90
21445;DHT22;10883;51.946;20.140;2023-04-03T00:49:26;1.30;99.90
21445;DHT22;10883;51.946;20.140;2023-04-03T00:51:53;1.20;99.90
21445;DHT22;10883;51.946;20.140;2023-04-03T00:54:19;1.20;99.90
21445;DHT22;10883;51.946;20.140;2023-04-03T00:56:45;1.20;99.90
21445;DHT22;10883;51.946;20.140;2023-04-03T00:59:15;1.10;99.90
21445;DHT22;10883;51.946;20.140;2023-04-03T01:01:42;1.10;99.90
21445;DHT22;10883;51.946;20.140;2023-04-03T01:04:31;1.00;99.90
21445;DHT22;10883;51.946;20.140;2023-04-03T01:07:03;1.10;99.90
21445;DHT22;10883;51.946;20.140;2023-04-03T01:09:30;1.00;99.90
21445;DHT22;10883;51.946;20.140;2023-04-03T01:14:56;1.00;99.90
21445;DHT22;10883;51.946;20.140;2023-04-03T01:17:38;1.00;99.90
21445;DHT22;10883;51.946;20.140;2023-04-03T01:21:13;1.00;99.90
21445;DHT22;10883;51.946;20.140;2023-04-03T01:25:44;1.00;99.90
21445;DHT22;10883;51.946;20.140;2023-04-03T01:28:14;0.90;99.90
21445;DHT22;10883;51.946;20.140;2023-04-03T01:33:31;1.00;99.90
21445;DHT22;10883;51.946;20.140;2023-04-03T01:35:57;1.00;99.90
21445;DHT22;10883;51.946;20.140;2023-04-03T01:38:22;1.00;99.90
21445;DHT22;10883;51.946;20.140;2023-04-03T01:40:48;1.00;99.90
21445;DHT22;10883;51.946;20.140;2023-04-03T01:43:14;1.00;99.90
21445;DHT22;10883;51.946;20.140;2023-04-03T01:45:40;1.10;99.90
21445;DHT22;10883;51.946;20.140;2023-04-03T01:48:06;1.10;99.90
21445;DHT22;10883;51.946;20.140;2023-04-03T01:50:32;1.10;99.90
21445;DHT22;10883;51.946;20.140;2023-04-03T01:52:58;1.00;99.90
21445;DHT22;10883;51.946;20.140;2023-04-03T01:55:23;1.00;99.90
21445;DHT22;10883;51.946;20.140;2023-04-03T01:57:49;1.00;99.90
21445;DHT22;10883;51.946;20.140;2023-04-03T02:00:15;0.90;99.90
21445;DHT22;10883;51.946;20.140;2023-04-03T02:02:42;0.90;99.90
21445;DHT22;10883;51.946;20.140;2023-04-03T02:05:08;1.00;99.90
21445;DHT22;10883;51.946;20.140;2023-04-03T02:07:34;0.90;99.90
21445;DHT22;10883;51.946;20.140;2023-04-03T02:09:59;0.90;99.90
21445;DHT22;10883;51.946;20.140;2023-04-03T02:12:25;0.80;99.90
21445;DHT22;10883;51.946;20.140;2023-04-03T02:14:51;0.80;99.90
21445;DHT22;10883;51.946;20.140;2023-04-03T02:17:17;0.80;99.90
21445;DHT22;10883;51.946;20.140;2023-04-03T02:19:43;0.70;99.90
21445;DHT22;10883;51.946;20.140;2023-04-03T02:22:09;0.70;99.90
21445;DHT22;10883;51.946;20.140;2023-04-03T02:24:35;0.70;99.90
21445;DHT22;10883;51.946;20.140;2023-04-03T02:27:00;0.60;99.90
21445;DHT22;10883;51.946;20.140;2023-04-03T02:29:26;0.60;99.90
21445;DHT22;10883;51.946;20.140;2023-04-03T02:31:52;0.60;99.90
21445;DHT22;10883;51.946;20.140;2023-04-03T02:34:18;0.50;99.90
21445;DHT22;10883;51.946;20.140;2023-04-03T02:36:43;0.50;99.90
21445;DHT22;10883;51.946;20.140;2023-04-03T02:39:10;0.40;99.90
21445;DHT22;10883;51.946;20.140;2023-04-03T02:41:36;0.40;99.90
21445;DHT22;10883;51.946;20.140;2023-04-03T02:44:04;0.30;99.90
21445;DHT22;10883;51.946;20.140;2023-04-03T02:46:30;0.20;99.90
21445;DHT22;10883;51.946;20.140;2023-04-03T02:48:56;0.20;99.90
21445;DHT22;10883;51.946;20.140;2023-04-03T02:51:21;0.10;99.90
21445;DHT22;10883;51.946;20.140;2023-04-03T02:53:49;0.10;99.90
21445;DHT22;10883;51.946;20.140;2023-04-03T02:56:15;0.00;99.90
21445;DHT22;10883;51.946;20.140;2023-04-03T02:58:41;0.00;99.90
21445;DHT22;10883;51.946;20.140;2023-04-03T03:01:06;0.00;99.90
21445;DHT22;10883;51.946;20.140;2023-04-03T03:03:32;-0.10;99.90
21445;DHT22;10883;51.946;20.140;2023-04-03T03:06:09;-0.10;99.90
21445;DHT22;10883;51.946;20.140;2023-04-03T03:08:36;-0.20;99.90
21445;DHT22;10883;51.946;20.140;2023-04-03T03:11:02;-0.30;99.90
21445;DHT22;10883;51.946;20.140;2023-04-03T03:13:29;-0.30;99.90
21445;DHT22;10883;51.946;20.140;2023-04-03T03:15:55;-0.30;99.90
21445;DHT22;10883;51.946;20.140;2023-04-03T03:18:21;-0.30;99.90
21445;DHT22;10883;51.946;20.140;2023-04-03T03:20:55;-0.30;99.90
21445;DHT22;10883;51.946;20.140;2023-04-03T03:23:22;-0.40;99.90
21445;DHT22;10883;51.946;20.140;2023-04-03T03:25:48;-0.40;99.90
21445;DHT22;10883;51.946;20.140;2023-04-03T03:28:14;-0.40;99.90
21445;DHT22;10883;51.946;20.140;2023-04-03T03:30:40;-0.40;99.90
21445;DHT22;10883;51.946;20.140;2023-04-03T03:33:06;-0.40;99.90
21445;DHT22;10883;51.946;20.140;2023-04-03T03:35:32;-0.50;99.90
21445;DHT22;10883;51.946;20.140;2023-04-03T03:37:58;-0.60;99.90
21445;DHT22;10883;51.946;20.140;2023-04-03T03:40:24;-0.60;99.90
21445;DHT22;10883;51.946;20.140;2023-04-03T03:42:50;-0.50;99.90
21445;DHT22;10883;51.946;20.140;2023-04-03T03:45:16;-0.60;99.90
21445;DHT22;10883;51.946;20.140;2023-04-03T03:47:41;-0.70;99.90
21445;DHT22;10883;51.946;20.140;2023-04-03T03:50:08;-0.60;99.90
21445;DHT22;10883;51.946;20.140;2023-04-03T03:52:34;-0.70;99.90
21445;DHT22;10883;51.946;20.140;2023-04-03T03:55:00;-0.70;99.90
21445;DHT22;10883;51.946;20.140;2023-04-03T03:57:25;-0.60;99.90
21445;DHT22;10883;51.946;20.140;2023-04-03T03:59:54;-0.60;99.90
21445;DHT22;10883;51.946;20.140;2023-04-03T04:02:20;-0.60;99.90
21445;DHT22;10883;51.946;20.140;2023-04-03T04:04:46;-0.70;99.90
21445;DHT22;10883;51.946;20.140;2023-04-03T04:07:12;-0.80;99.90
21445;DHT22;10883;51.946;20.140;2023-04-03T04:09:38;-0.90;99.90
21445;DHT22;10883;51.946;20.140;2023-04-03T04:12:03;-0.90;99.90
21445;DHT22;10883;51.946;20.140;2023-04-03T04:14:29;-0.90;99.90
21445;DHT22;10883;51.946;20.140;2023-04-03T04:16:55;-1.00;99.90
21445;DHT22;10883;51.946;20.140;2023-04-03T04:19:21;-1.00;99.90
21445;DHT22;10883;51.946;20.140;2023-04-03T04:21:47;-1.00;99.90
21445;DHT22;10883;51.946;20.140;2023-04-03T04:24:12;-0.90;99.90
21445;DHT22;10883;51.946;20.140;2023-04-03T04:26:38;-0.90;99.90
21445;DHT22;10883;51.946;20.140;2023-04-03T04:29:04;-0.90;99.90
21445;DHT22;10883;51.946;20.140;2023-04-03T04:31:30;-1.00;99.90
21445;DHT22;10883;51.946;20.140;2023-04-03T04:33:55;-0.90;99.90
21445;DHT22;10883;51.946;20.140;2023-04-03T04:36:21;-0.90;99.90
21445;DHT22;10883;51.946;20.140;2023-04-03T04:38:47;-0.90;99.90
21445;DHT22;10883;51.946;20.140;2023-04-03T04:41:13;-0.90;99.90
21445;DHT22;10883;51.946;20.140;2023-04-03T04:43:38;-0.90;99.90
21445;DHT22;10883;51.946;20.140;2023-04-03T04:46:09;-0.80;99.90
21445;DHT22;10883;51.946;20.140;2023-04-03T04:48:37;-0.80;99.90
21445;DHT22;10883;51.946;20.140;2023-04-03T04:51:03;-0.80;99.90
21445;DHT22;10883;51.946;20.140;2023-04-03T04:53:29;-0.70;99.90
21445;DHT22;10883;51.946;20.140;2023-04-03T04:55:55;-0.60;99.90
21445;DHT22;10883;51.946;20.140;2023-04-03T04:58:21;-0.60;99.90
21445;DHT22;10883;51.946;20.140;2023-04-03T05:00:47;-0.50;99.90
21445;DHT22;10883;51.946;20.140;2023-04-03T05:03:12;-0.50;99.90
21445;DHT22;10883;51.946;20.140;2023-04-03T05:05:38;-0.60;99.90
21445;DHT22;10883;51.946;20.140;2023-04-03T05:08:05;-0.60;99.90
21445;DHT22;10883;51.946;20.140;2023-04-03T05:10:31;-0.60;99.90
21445;DHT22;10883;51.946;20.140;2023-04-03T05:12:57;-0.60;99.90
21445;DHT22;10883;51.946;20.140;2023-04-03T05:15:23;-0.50;99.90
21445;DHT22;10883;51.946;20.140;2023-04-03T05:17:49;-0.50;99.90
21445;DHT22;10883;51.946;20.140;2023-04-03T05:20:15;-0.50;99.90
21445;DHT22;10883;51.946;20.140;2023-04-03T05:22:41;-0.50;99.90
21445;DHT22;10883;51.946;20.140;2023-04-03T05:25:07;-0.40;99.90
21445;DHT22;10883;51.946;20.140;2023-04-03T05:27:33;-0.30;99.90
21445;DHT22;10883;51.946;20.140;2023-04-03T05:29:59;-0.20;99.90
21445;DHT22;10883;51.946;20.140;2023-04-03T05:32:26;0.00;99.90
21445;DHT22;10883;51.946;20.140;2023-04-03T05:34:53;0.10;99.90
21445;DHT22;10883;51.946;20.140;2023-04-03T05:37:19;0.20;99.90
21445;DHT22;10883;51.946;20.140;2023-04-03T05:39:45;0.40;99.90
21445;DHT22;10883;51.946;20.140;2023-04-03T05:42:11;0.50;99.90
21445;DHT22;10883;51.946;20.140;2023-04-03T05:44:37;0.70;99.90
21445;DHT22;10883;51.946;20.140;2023-04-03T05:47:04;0.90;99.90
21445;DHT22;10883;51.946;20.140;2023-04-03T05:49:30;1.30;99.90
21445;DHT22;10883;51.946;20.140;2023-04-03T05:51:56;1.80;99.90
21445;DHT22;10883;51.946;20.140;2023-04-03T05:54:24;2.60;99.90
21445;DHT22;10883;51.946;20.140;2023-04-03T05:56:51;4.80;99.90
21445;DHT22;10883;51.946;20.140;2023-04-03T05:59:17;5.10;99.90
21445;DHT22;10883;51.946;20.140;2023-04-03T06:01:43;4.00;99.90
21445;DHT22;10883;51.946;20.140;2023-04-03T06:04:10;3.10;99.90
21445;DHT22;10883;51.946;20.140;2023-04-03T06:06:50;3.30;99.90
21445;DHT22;10883;51.946;20.140;2023-04-03T06:09:19;3.20;99.90
21445;DHT22;10883;51.946;20.140;2023-04-03T06:11:45;3.30;99.90
21445;DHT22;10883;51.946;20.140;2023-04-03T06:14:11;4.00;99.90
21445;DHT22;10883;51.946;20.140;2023-04-03T06:16:37;4.90;99.90
21445;DHT22;10883;51.946;20.140;2023-04-03T06:19:05;3.90;99.90
21445;DHT22;10883;51.946;20.140;2023-04-03T06:21:32;3.20;99.90
21445;DHT22;10883;51.946;20.140;2023-04-03T06:23:57;3.00;99.90
21445;DHT22;10883;51.946;20.140;2023-04-03T06:26:23;3.00;99.90
21445;DHT22;10883;51.946;20.140;2023-04-03T06:28:49;4.80;99.90
21445;DHT22;10883;51.946;20.140;2023-04-03T06:31:15;8.30;99.90
21445;DHT22;10883;51.946;20.140;2023-04-03T06:33:42;10.90;92.40
21445;DHT22;10883;51.946;20.140;2023-04-03T06:36:10;11.80;87.90
21445;DHT22;10883;51.946;20.140;2023-04-03T06:38:37;12.10;86.00
21445;DHT22;10883;51.946;20.140;2023-04-03T06:41:02;13.00;81.90
21445;DHT22;10883;51.946;20.140;2023-04-03T06:43:28;14.10;77.00
21445;DHT22;10883;51.946;20.140;2023-04-03T06:45:54;14.10;75.30
21445;DHT22;10883;51.946;20.140;2023-04-03T06:48:20;14.00;73.40
21445;DHT22;10883;51.946;20.140;2023-04-03T06:50:46;13.70;73.30
21445;DHT22;10883;51.946;20.140;2023-04-03T06:53:12;14.50;73.80
21445;DHT22;10883;51.946;20.140;2023-04-03T06:55:37;14.20;72.00
21445;DHT22;10883;51.946;20.140;2023-04-03T06:58:04;14.30;71.50
21445;DHT22;10883;51.946;20.140;2023-04-03T07:00:30;12.90;72.60
21445;DHT22;10883;51.946;20.140;2023-04-03T07:02:56;14.20;71.40
21445;DHT22;10883;51.946;20.140;2023-04-03T07:05:23;13.70;71.10
21445;DHT22;10883;51.946;20.140;2023-04-03T07:07:50;14.00;70.60
21445;DHT22;10883;51.946;20.140;2023-04-03T07:10:16;14.60;70.60
21445;DHT22;10883;51.946;20.140;2023-04-03T07:12:42;12.50;71.20
21445;DHT22;10883;51.946;20.140;2023-04-03T07:15:09;14.20;71.40
21445;DHT22;10883;51.946;20.140;2023-04-03T07:17:35;15.50;70.00
21445;DHT22;10883;51.946;20.140;2023-04-03T07:20:02;17.20;65.50
21445;DHT22;10883;51.946;20.140;2023-04-03T07:22:30;16.90;64.00
21445;DHT22;10883;51.946;20.140;2023-04-03T07:24:55;17.40;64.50
21445;DHT22;10883;51.946;20.140;2023-04-03T07:27:21;17.20;63.70
21445;DHT22;10883;51.946;20.140;2023-04-03T07:29:47;16.60;63.30
21445;DHT22;10883;51.946;20.140;2023-04-03T07:32:14;15.60;65.70
21445;DHT22;10883;51.946;20.140;2023-04-03T07:34:40;14.80;66.80
21445;DHT22;10883;51.946;20.140;2023-04-03T07:37:07;15.30;67.20
21445;DHT22;10883;51.946;20.140;2023-04-03T07:39:34;16.10;66.70
21445;DHT22;10883;51.946;20.140;2023-04-03T07:42:00;17.30;64.50
21445;DHT22;10883;51.946;20.140;2023-04-03T07:44:27;17.90;61.00
21445;DHT22;10883;51.946;20.140;2023-04-03T07:46:53;17.90;61.90
21445;DHT22;10883;51.946;20.140;2023-04-03T07:49:21;17.30;61.80
21445;DHT22;10883;51.946;20.140;2023-04-03T07:51:48;19.40;59.30
21445;DHT22;10883;51.946;20.140;2023-04-03T07:54:14;18.20;59.80
21445;DHT22;10883;51.946;20.140;2023-04-03T07:56:41;18.20;59.60
21445;DHT22;10883;51.946;20.140;2023-04-03T07:59:09;19.50;58.40
21445;DHT22;10883;51.946;20.140;2023-04-03T08:01:35;17.70;59.70
21445;DHT22;10883;51.946;20.140;2023-04-03T08:04:01;18.00;60.10
21445;DHT22;10883;51.946;20.140;2023-04-03T08:06:27;19.40;57.70
21445;DHT22;10883;51.946;20.140;2023-04-03T08:08:55;21.00;55.50
21445;DHT22;10883;51.946;20.140;2023-04-03T08:11:21;17.00;59.50
21445;DHT22;10883;51.946;20.140;2023-04-03T08:13:49;16.80;60.80
21445;DHT22;10883;51.946;20.140;2023-04-03T08:16:20;18.80;58.80
21445;DHT22;10883;51.946;20.140;2023-04-03T08:18:47;19.30;58.30
21445;DHT22;10883;51.946;20.140;2023-04-03T08:21:13;20.30;56.80
21445;DHT22;10883;51.946;20.140;2023-04-03T08:23:41;19.20;57.20
21445;DHT22;10883;51.946;20.140;2023-04-03T08:26:13;16.80;59.90
21445;DHT22;10883;51.946;20.140;2023-04-03T08:28:40;13.80;67.10
21445;DHT22;10883;51.946;20.140;2023-04-03T08:31:08;14.00;66.00
21445;DHT22;10883;51.946;20.140;2023-04-03T08:33:37;12.10;71.30
21445;DHT22;10883;51.946;20.140;2023-04-03T08:36:14;15.40;66.40
21445;DHT22;10883;51.946;20.140;2023-04-03T08:38:41;18.80;59.50
21445;DHT22;10883;51.946;20.140;2023-04-03T08:41:25;15.50;61.60
21445;DHT22;10883;51.946;20.140;2023-04-03T08:49:00;14.90;64.10
21445;DHT22;10883;51.946;20.140;2023-04-03T08:51:26;16.10;63.70
21445;DHT22;10883;51.946;20.140;2023-04-03T08:54:06;15.80;60.10
21445;DHT22;10883;51.946;20.140;2023-04-03T08:56:38;16.50;61.30
21445;DHT22;10883;51.946;20.140;2023-04-03T08:59:12;17.90;58.90
21445;DHT22;10883;51.946;20.140;2023-04-03T09:01:40;19.10;58.50
21445;DHT22;10883;51.946;20.140;2023-04-03T09:04:12;20.20;56.20
21445;DHT22;10883;51.946;20.140;2023-04-03T09:06:39;16.10;58.70
21445;DHT22;10883;51.946;20.140;2023-04-03T09:11:57;10.40;69.70
21445;DHT22;10883;51.946;20.140;2023-04-03T09:14:39;9.40;73.40
21445;DHT22;10883;51.946;20.140;2023-04-03T09:20:09;14.10;65.80
21445;DHT22;10883;51.946;20.140;2023-04-03T09:22:40;15.80;59.90
21445;DHT22;10883;51.946;20.140;2023-04-03T09:25:23;17.80;58.60
21445;DHT22;10883;51.946;20.140;2023-04-03T09:27:49;21.00;55.30
21445;DHT22;10883;51.946;20.140;2023-04-03T09:30:18;17.70;55.00
21445;DHT22;10883;51.946;20.140;2023-04-03T09:32:46;13.70;59.50
21445;DHT22;10883;51.946;20.140;2023-04-03T09:35:20;13.40;63.50
21445;DHT22;10883;51.946;20.140;2023-04-03T09:37:48;13.40;63.30
21445;DHT22;10883;51.946;20.140;2023-04-03T09:40:36;12.80;63.10
21445;DHT22;10883;51.946;20.140;2023-04-03T09:43:20;13.80;60.10
21445;DHT22;10883;51.946;20.140;2023-04-03T09:45:47;16.00;58.50
21445;DHT22;10883;51.946;20.140;2023-04-03T09:51:00;16.90;58.80
21445;DHT22;10883;51.946;20.140;2023-04-03T09:59:14;14.40;58.60
21445;DHT22;10883;51.946;20.140;2023-04-03T10:01:46;11.70;63.40
21445;DHT22;10883;51.946;20.140;2023-04-03T10:04:22;11.80;65.60
21445;DHT22;10883;51.946;20.140;2023-04-03T10:06:53;11.50;68.10
21445;DHT22;10883;51.946;20.140;2023-04-03T10:09:29;13.10;63.80
21445;DHT22;10883;51.946;20.140;2023-04-03T10:12:07;11.70;64.30
21445;DHT22;10883;51.946;20.140;2023-04-03T10:26:48;13.00;64.80
21445;DHT22;10883;51.946;20.140;2023-04-03T10:28:55;13.70;62.60
21445;DHT22;10883;51.946;20.140;2023-04-03T10:31:41;15.70;61.10
21445;DHT22;10883;51.946;20.140;2023-04-03T10:36:51;16.40;58.10
21445;DHT22;10883;51.946;20.140;2023-04-03T10:39:56;17.10;57.90
21445;DHT22;10883;51.946;20.140;2023-04-03T10:43:04;16.90;56.50
21445;DHT22;10883;51.946;20.140;2023-04-03T10:53:44;10.60;68.30
21445;DHT22;10883;51.946;20.140;2023-04-03T10:56:48;10.60;69.70
21445;DHT22;10883;51.946;20.140;2023-04-03T10:59:26;12.90;66.30
21445;DHT22;10883;51.946;20.140;2023-04-03T11:01:56;14.90;60.60
21445;DHT22;10883;51.946;20.140;2023-04-03T11:04:27;16.40;58.10
21445;DHT22;10883;51.946;20.140;2023-04-03T11:07:01;17.90;57.40
21445;DHT22;10883;51.946;20.140;2023-04-03T11:09:34;17.00;57.00
21445;DHT22;10883;51.946;20.140;2023-04-03T11:12:23;15.90;60.00
21445;DHT22;10883;51.946;20.140;2023-04-03T11:14:51;14.90;60.10
21445;DHT22;10883;51.946;20.140;2023-04-03T11:22:58;11.80;67.60
21445;DHT22;10883;51.946;20.140;2023-04-03T11:25:30;12.90;66.40
21445;DHT22;10883;51.946;20.140;2023-04-03T11:28:06;15.10;60.20
21445;DHT22;10883;51.946;20.140;2023-04-03T11:33:32;16.80;56.30
21445;DHT22;10883;51.946;20.140;2023-04-03T11:36:09;15.40;56.80
21445;DHT22;10883;51.946;20.140;2023-04-03T11:38:38;13.70;59.50
21445;DHT22;10883;51.946;20.140;2023-04-03T11:41:08;13.30;61.40
21445;DHT22;10883;51.946;20.140;2023-04-03T11:43:41;13.90;59.60
21445;DHT22;10883;51.946;20.140;2023-04-03T11:46:08;13.10;61.60
21445;DHT22;10883;51.946;20.140;2023-04-03T11:51:41;11.70;65.10
21445;DHT22;10883;51.946;20.140;2023-04-03T12:00:55;12.00;67.30
21445;DHT22;10883;51.946;20.140;2023-04-03T12:11:32;11.50;66.90
21445;DHT22;10883;51.946;20.140;2023-04-03T12:26:40;10.50;66.50
21445;DHT22;10883;51.946;20.140;2023-04-03T12:41:18;8.50;72.20
21445;DHT22;10883;51.946;20.140;2023-04-03T12:46:34;8.50;72.90
21445;DHT22;10883;51.946;20.140;2023-04-03T12:51:58;8.80;74.70
21445;DHT22;10883;51.946;20.140;2023-04-03T12:54:38;11.60;70.60
21445;DHT22;10883;51.946;20.140;2023-04-03T12:57:15;11.70;65.80
21445;DHT22;10883;51.946;20.140;2023-04-03T12:59:42;11.10;65.70
21445;DHT22;10883;51.946;20.140;2023-04-03T13:02:31;10.30;68.40
21445;DHT22;10883;51.946;20.140;2023-04-03T13:05:06;11.60;69.30
21445;DHT22;10883;51.946;20.140;2023-04-03T13:07:35;12.60;64.70
21445;DHT22;10883;51.946;20.140;2023-04-03T13:12:46;12.20;63.00
21445;DHT22;10883;51.946;20.140;2023-04-03T13:17:42;9.90;68.40
21445;DHT22;10883;51.946;20.140;2023-04-03T13:20:37;8.90;71.10
21445;DHT22;10883;51.946;20.140;2023-04-03T13:23:06;8.20;72.80
21445;DHT22;10883;51.946;20.140;2023-04-03T13:25:35;8.10;73.60
21445;DHT22;10883;51.946;20.140;2023-04-03T13:28:05;8.10;74.10
21445;DHT22;10883;51.946;20.140;2023-04-03T13:30:35;7.90;72.80
21445;DHT22;10883;51.946;20.140;2023-04-03T13:33:17;8.80;73.10
21445;DHT22;10883;51.946;20.140;2023-04-03T13:35:44;9.90;69.30
21445;DHT22;10883;51.946;20.140;2023-04-03T13:41:29;8.50;70.40
21445;DHT22;10883;51.946;20.140;2023-04-03T13:43:55;7.90;72.30
21445;DHT22;10883;51.946;20.140;2023-04-03T13:46:28;8.00;72.20
21445;DHT22;10883;51.946;20.140;2023-04-03T13:48:55;10.40;69.80
21445;DHT22;10883;51.946;20.140;2023-04-03T13:51:27;12.40;64.90
21445;DHT22;10883;51.946;20.140;2023-04-03T14:04:30;8.70;70.40
21445;DHT22;10883;51.946;20.140;2023-04-03T14:06:57;8.30;71.20
21445;DHT22;10883;51.946;20.140;2023-04-03T14:09:25;8.00;71.60
21445;DHT22;10883;51.946;20.140;2023-04-03T14:11:54;7.80;73.60
21445;DHT22;10883;51.946;20.140;2023-04-03T14:14:27;7.80;71.80
21445;DHT22;10883;51.946;20.140;2023-04-03T14:16:57;7.70;71.70
21445;DHT22;10883;51.946;20.140;2023-04-03T14:19:32;7.70;73.10
21445;DHT22;10883;51.946;20.140;2023-04-03T14:22:00;8.00;72.90
21445;DHT22;10883;51.946;20.140;2023-04-03T14:24:26;8.00;72.30
21445;DHT22;10883;51.946;20.140;2023-04-03T14:26:54;7.70;73.30
21445;DHT22;10883;51.946;20.140;2023-04-03T14:29:20;7.40;74.50
21445;DHT22;10883;51.946;20.140;2023-04-03T14:31:47;7.20;73.80
21445;DHT22;10883;51.946;20.140;2023-04-03T14:34:14;8.50;73.70
21445;DHT22;10883;51.946;20.140;2023-04-03T14:36:42;9.40;70.90
21445;DHT22;10883;51.946;20.140;2023-04-03T14:39:16;9.10;72.20
21445;DHT22;10883;51.946;20.140;2023-04-03T14:41:42;8.20;72.20
21445;DHT22;10883;51.946;20.140;2023-04-03T14:44:09;7.80;74.60
21445;DHT22;10883;51.946;20.140;2023-04-03T14:46:42;7.30;74.10
21445;DHT22;10883;51.946;20.140;2023-04-03T14:49:24;6.90;75.60
21445;DHT22;10883;51.946;20.140;2023-04-03T14:51:51;6.80;75.20
21445;DHT22;10883;51.946;20.140;2023-04-03T14:54:21;6.80;76.30
21445;DHT22;10883;51.946;20.140;2023-04-03T14:56:51;6.90;75.40
21445;DHT22;10883;51.946;20.140;2023-04-03T14:59:18;7.10;75.70
21445;DHT22;10883;51.946;20.140;2023-04-03T15:01:45;7.00;75.50
21445;DHT22;10883;51.946;20.140;2023-04-03T15:04:19;7.00;76.40
21445;DHT22;10883;51.946;20.140;2023-04-03T15:06:46;6.60;76.60
21445;DHT22;10883;51.946;20.140;2023-04-03T15:09:21;6.50;75.60
21445;DHT22;10883;51.946;20.140;2023-04-03T15:11:49;6.50;75.80
21445;DHT22;10883;51.946;20.140;2023-04-03T15:14:15;6.40;76.10
21445;DHT22;10883;51.946;20.140;2023-04-03T15:16:40;6.30;76.30
21445;DHT22;10883;51.946;20.140;2023-04-03T15:19:06;6.30;77.60
21445;DHT22;10883;51.946;20.140;2023-04-03T15:21:32;6.40;77.50
21445;DHT22;10883;51.946;20.140;2023-04-03T15:23:58;6.50;77.50
21445;DHT22;10883;51.946;20.140;2023-04-03T15:26:24;6.50;78.30
21445;DHT22;10883;51.946;20.140;2023-04-03T15:28:50;6.40;76.70
21445;DHT22;10883;51.946;20.140;2023-04-03T15:31:16;6.30;78.30
21445;DHT22;10883;51.946;20.140;2023-04-03T15:33:42;6.10;78.50
21445;DHT22;10883;51.946;20.140;2023-04-03T15:36:08;6.00;79.50
21445;DHT22;10883;51.946;20.140;2023-04-03T15:38:34;5.90;79.10
21445;DHT22;10883;51.946;20.140;2023-04-03T15:41:01;5.90;79.70
21445;DHT22;10883;51.946;20.140;2023-04-03T15:43:26;5.90;80.20
21445;DHT22;10883;51.946;20.140;2023-04-03T15:45:52;5.90;79.80
21445;DHT22;10883;51.946;20.140;2023-04-03T15:48:21;5.80;79.40
21445;DHT22;10883;51.946;20.140;2023-04-03T15:50:47;5.80;79.00
21445;DHT22;10883;51.946;20.140;2023-04-03T15:53:13;5.70;79.90
21445;DHT22;10883;51.946;20.140;2023-04-03T15:55:39;5.70;80.50
21445;DHT22;10883;51.946;20.140;2023-04-03T15:58:05;5.50;80.20
21445;DHT22;10883;51.946;20.140;2023-04-03T16:00:31;5.50;80.00
21445;DHT22;10883;51.946;20.140;2023-04-03T16:03:05;5.30;80.10
21445;DHT22;10883;51.946;20.140;2023-04-03T16:05:31;5.30;80.80
21445;DHT22;10883;51.946;20.140;2023-04-03T16:07:59;5.20;81.30
21445;DHT22;10883;51.946;20.140;2023-04-03T16:10:26;5.20;81.30
21445;DHT22;10883;51.946;20.140;2023-04-03T16:12:52;5.30;82.80
21445;DHT22;10883;51.946;20.140;2023-04-03T16:15:17;5.20;82.10
21445;DHT22;10883;51.946;20.140;2023-04-03T16:17:44;5.20;82.50
21445;DHT22;10883;51.946;20.140;2023-04-03T16:20:10;5.20;82.10
21445;DHT22;10883;51.946;20.140;2023-04-03T16:22:37;5.20;82.90
21445;DHT22;10883;51.946;20.140;2023-04-03T16:25:04;5.10;84.00
21445;DHT22;10883;51.946;20.140;2023-04-03T16:27:31;5.10;84.30
21445;DHT22;10883;51.946;20.140;2023-04-03T16:29:57;5.10;82.70
21445;DHT22;10883;51.946;20.140;2023-04-03T16:32:24;5.00;83.50
21445;DHT22;10883;51.946;20.140;2023-04-03T16:34:51;4.90;84.10
21445;DHT22;10883;51.946;20.140;2023-04-03T16:37:18;4.90;84.20
21445;DHT22;10883;51.946;20.140;2023-04-03T16:39:44;5.00;83.40
21445;DHT22;10883;51.946;20.140;2023-04-03T16:42:10;4.90;85.10
21445;DHT22;10883;51.946;20.140;2023-04-03T16:44:36;4.90;83.90
21445;DHT22;10883;51.946;20.140;2023-04-03T16:47:02;4.80;84.80
21445;DHT22;10883;51.946;20.140;2023-04-03T16:49:28;4.80;85.50
21445;DHT22;10883;51.946;20.140;2023-04-03T16:51:58;4.70;85.50
21445;DHT22;10883;51.946;20.140;2023-04-03T16:54:24;4.70;85.50
21445;DHT22;10883;51.946;20.140;2023-04-03T16:56:50;4.70;86.70
21445;DHT22;10883;51.946;20.140;2023-04-03T16:59:16;4.70;90.60
21445;DHT22;10883;51.946;20.140;2023-04-03T17:01:42;4.60;90.30
21445;DHT22;10883;51.946;20.140;2023-04-03T17:04:08;4.50;87.80
21445;DHT22;10883;51.946;20.140;2023-04-03T17:06:34;4.50;87.60
21445;DHT22;10883;51.946;20.140;2023-04-03T17:09:00;4.50;87.40
21445;DHT22;10883;51.946;20.140;2023-04-03T17:11:27;4.50;87.60
21445;DHT22;10883;51.946;20.140;2023-04-03T17:13:53;4.50;89.40
21445;DHT22;10883;51.946;20.140;2023-04-03T17:16:19;4.40;89.90
21445;DHT22;10883;51.946;20.140;2023-04-03T17:18:45;4.40;89.90
21445;DHT22;10883;51.946;20.140;2023-04-03T17:21:13;4.30;88.60
21445;DHT22;10883;51.946;20.140;2023-04-03T17:23:40;4.50;86.70
21445;DHT22;10883;51.946;20.140;2023-04-03T17:26:06;4.40;88.00
21445;DHT22;10883;51.946;20.140;2023-04-03T17:28:32;4.30;88.80
21445;DHT22;10883;51.946;20.140;2023-04-03T17:31:00;4.20;89.20
21445;DHT22;10883;51.946;20.140;2023-04-03T17:33:26;4.10;90.30
21445;DHT22;10883;51.946;20.140;2023-04-03T17:35:59;4.10;90.70
21445;DHT22;10883;51.946;20.140;2023-04-03T17:38:32;4.10;90.60
21445;DHT22;10883;51.946;20.140;2023-04-03T17:41:00;4.10;90.70